Gleneden Beach, Oregon
Current Conditions -  °F | °C
As of 4:35 PM on Wednesday 22 Oct 2014 (Local Time) from KONP Reporting Station
Light Rain Light Rain  
Wind Chill: 55°   Ceiling: 900
Heat Index: 55°   Visibility: 10mi
Dew Point: 54°   Wind: 9mph
Humidity: 94%   Direction: 170°S
Pressure: 29.74"   Gusts: 20mph
Location:  44.88°N, 124.03°W
Report Text: KONP 222335Z AUTO 17008G17KT 10SM -RA BKN009 OVC016 13/12 A2974 RMK AO2 P0005
Loading
Personal Weather Stations






























Interactive Weather Map
Tropical Storm Tracking
New forecast layout! Learn more

10-Day Weather Forecast

Advertisements
Track Severe Weather on mobile